Time;durP1;ratioP1;P1;durP2;ratioP2;P2;SDS_P1;SDS_P2;PMS_P1;PMS_P2;Temp;Humidity;BMP_temperature;BMP_pressure;BME280_temperature;BME280_humidity;BME280_pressure;Samples;Min_cycle;Max_cycle;Signal;HPM_P1;HPM_P2
2022/03/26 00:01:24;;;;;;;35.08;21.60;;;;;;;;;;5096258;28;20545;-68
2022/03/26 00:03:51;;;;;;;34.70;22.88;;;;;;;;;;5096220;28;20204;-68
2022/03/26 00:06:18;;;;;;;39.75;22.08;;;;;;;;;;5095907;28;20229;-68
2022/03/26 00:08:48;;;;;;;34.10;20.55;;;;;;;;;;5095889;28;20200;-68
2022/03/26 00:11:15;;;;;;;35.42;21.45;;;;;;;;;;5095987;28;20203;-68
2022/03/26 00:13:42;;;;;;;41.67;20.55;;;;;;;;;;5096117;28;20649;-68
2022/03/26 00:16:10;;;;;;;33.95;20.85;;;;;;;;;;5096030;28;20191;-68
2022/03/26 00:18:39;;;;;;;41.72;20.88;;;;;;;;;;5095963;28;20220;-68
2022/03/26 00:21:06;;;;;;;38.17;20.55;;;;;;;;;;5096180;28;20199;-68
2022/03/26 00:23:33;;;;;;;33.67;21.45;;;;;;;;;;5096170;28;20199;-68
2022/03/26 00:26:01;;;;;;;42.97;21.10;;;;;;;;;;5095463;28;20196;-68
2022/03/26 00:28:28;;;;;;;33.58;18.92;;;;;;;;;;5095833;28;20191;-68
2022/03/26 00:30:56;;;;;;;34.88;20.65;;;;;;;;;;5095795;28;20203;-68
2022/03/26 00:33:23;;;;;;;29.45;21.50;;;;;;;;;;5095869;28;20209;-67
2022/03/26 00:35:52;;;;;;;41.75;22.77;;;;;;;;;;5095867;28;20202;-68
2022/03/26 00:38:19;;;;;;;32.10;20.65;;;;;;;;;;5095468;28;20192;-68
2022/03/26 00:40:46;;;;;;;30.40;19.25;;;;;;;;;;5095254;28;20680;-68
2022/03/26 00:43:14;;;;;;;35.88;21.20;;;;;;;;;;5095175;28;20203;-68
2022/03/26 00:45:41;;;;;;;36.92;21.50;;;;;;;;;;5095021;28;20224;-67
2022/03/26 00:48:09;;;;;;;38.40;22.25;;;;;;;;;;5095338;28;20196;-68
2022/03/26 00:50:36;;;;;;;29.70;18.38;;;;;;;;;;5095455;28;20196;-68
2022/03/26 00:53:05;;;;;;;37.55;21.05;;;;;;;;;;5095189;28;20198;-68
2022/03/26 00:55:32;;;;;;;34.47;20.17;;;;;;;;;;5095326;28;20196;-68
2022/03/26 00:57:59;;;;;;;36.85;21.23;;;;;;;;;;5095107;28;20203;-68
2022/03/26 01:00:27;;;;;;;46.88;24.23;;;;;;;;;;5095415;28;20213;-68
2022/03/26 01:02:54;;;;;;;46.55;27.08;;;;;;;;;;5095231;28;20259;-68
2022/03/26 01:05:21;;;;;;;39.42;25.77;;;;;;;;;;5095239;28;20195;-68
2022/03/26 01:07:49;;;;;;;40.38;27.02;;;;;;;;;;5094000;28;20287;-68
2022/03/26 01:10:17;;;;;;;43.63;24.73;;;;;;;;;;5095084;28;20543;-67
2022/03/26 01:12:45;;;;;;;31.92;19.95;;;;;;;;;;5095115;28;20196;-68
2022/03/26 01:15:12;;;;;;;32.90;19.33;;;;;;;;;;5094864;28;20239;-67
2022/03/26 01:17:39;;;;;;;30.27;18.75;;;;;;;;;;5094486;28;20206;-68
2022/03/26 01:20:08;;;;;;;33.05;19.02;;;;;;;;;;5095059;28;20222;-67
2022/03/26 01:22:35;;;;;;;40.97;21.00;;;;;;;;;;5094633;28;20297;-67
2022/03/26 01:25:02;;;;;;;32.10;20.88;;;;;;;;;;5094738;28;20279;-67
2022/03/26 01:27:30;;;;;;;30.20;18.33;;;;;;;;;;5094607;28;20191;-68
2022/03/26 01:29:58;;;;;;;30.15;17.30;;;;;;;;;;5094343;28;20681;-67
2022/03/26 01:32:25;;;;;;;29.48;18.30;;;;;;;;;;5094486;28;20226;-68
2022/03/26 01:34:52;;;;;;;25.83;18.40;;;;;;;;;;5094491;28;20202;-67
2022/03/26 01:37:19;;;;;;;29.13;19.23;;;;;;;;;;5094149;28;20201;-67
2022/03/26 01:39:46;;;;;;;30.30;19.45;;;;;;;;;;5094118;28;20554;-67
2022/03/26 01:42:14;;;;;;;31.08;18.35;;;;;;;;;;5094384;28;20206;-68
2022/03/26 01:44:42;;;;;;;31.10;16.42;;;;;;;;;;5093853;28;20226;-68
2022/03/26 01:47:09;;;;;;;29.63;17.63;;;;;;;;;;5094498;28;20236;-68
2022/03/26 01:49:37;;;;;;;27.40;17.38;;;;;;;;;;5094574;28;20199;-67
2022/03/26 01:52:07;;;;;;;39.72;18.40;;;;;;;;;;5094191;28;20561;-68
2022/03/26 01:54:34;;;;;;;32.08;19.70;;;;;;;;;;5094744;28;20185;-68
2022/03/26 01:57:02;;;;;;;35.22;20.40;;;;;;;;;;5093847;28;20208;-68
2022/03/26 01:59:29;;;;;;;31.05;16.92;;;;;;;;;;5093720;28;20219;-68
2022/03/26 02:01:57;;;;;;;28.77;17.10;;;;;;;;;;5094324;28;20288;-68
2022/03/26 02:04:26;;;;;;;30.50;17.80;;;;;;;;;;5093959;28;20261;-68
2022/03/26 02:06:54;;;;;;;31.15;17.83;;;;;;;;;;5094036;28;20195;-68
2022/03/26 02:09:21;;;;;;;29.08;17.08;;;;;;;;;;5093902;28;20289;-68
2022/03/26 02:11:48;;;;;;;31.55;16.92;;;;;;;;;;5093974;28;20195;-68
2022/03/26 02:14:16;;;;;;;33.33;17.83;;;;;;;;;;5093845;28;20285;-68
2022/03/26 02:16:44;;;;;;;29.98;17.98;;;;;;;;;;5094151;28;20628;-67
2022/03/26 02:19:12;;;;;;;29.88;17.90;;;;;;;;;;5092751;28;20306;-67
2022/03/26 02:21:41;;;;;;;36.95;17.73;;;;;;;;;;5093798;28;20661;-68
2022/03/26 02:24:09;;;;;;;30.75;19.15;;;;;;;;;;5093397;28;20195;-67
2022/03/26 02:26:36;;;;;;;31.55;18.45;;;;;;;;;;5094088;28;20199;-69
2022/03/26 02:29:08;;;;;;;30.17;18.02;;;;;;;;;;5093833;28;20349;-68
2022/03/26 02:31:35;;;;;;;29.55;17.70;;;;;;;;;;5093719;28;20543;-68
2022/03/26 02:34:02;;;;;;;29.38;17.45;;;;;;;;;;5093748;28;20220;-68
2022/03/26 02:36:29;;;;;;;26.48;17.95;;;;;;;;;;5093368;28;20195;-67
2022/03/26 02:38:58;;;;;;;27.23;17.23;;;;;;;;;;5093267;28;20207;-68
2022/03/26 02:41:25;;;;;;;31.25;18.58;;;;;;;;;;5093619;28;20201;-68
2022/03/26 02:43:52;;;;;;;28.25;17.23;;;;;;;;;;5093483;28;20192;-68
2022/03/26 02:46:20;;;;;;;29.73;18.13;;;;;;;;;;5093066;28;20235;-68
2022/03/26 02:48:47;;;;;;;34.67;17.77;;;;;;;;;;5093659;28;20190;-68
2022/03/26 02:51:14;;;;;;;33.72;19.40;;;;;;;;;;5093560;28;20223;-68
2022/03/26 02:53:41;;;;;;;34.60;20.35;;;;;;;;;;5093119;28;20200;-68
2022/03/26 02:56:10;;;;;;;37.05;19.10;;;;;;;;;;5093139;28;20649;-68
2022/03/26 02:58:37;;;;;;;31.65;19.05;;;;;;;;;;5093637;28;20603;-67
2022/03/26 03:01:04;;;;;;;31.17;18.38;;;;;;;;;;5093916;28;20305;-68
2022/03/26 03:03:31;;;;;;;33.33;18.45;;;;;;;;;;5093371;28;20210;-67
2022/03/26 03:05:58;;;;;;;40.75;20.13;;;;;;;;;;5093932;28;20196;-67
2022/03/26 03:08:26;;;;;;;39.42;20.77;;;;;;;;;;5093293;28;20202;-68
2022/03/26 03:10:53;;;;;;;36.40;18.48;;;;;;;;;;5093044;28;20198;-68
2022/03/26 03:13:22;;;;;;;34.08;19.45;;;;;;;;;;5092937;28;20194;-68
2022/03/26 03:15:49;;;;;;;41.33;17.73;;;;;;;;;;5092913;28;20255;-67
2022/03/26 03:18:17;;;;;;;29.60;17.35;;;;;;;;;;5093510;28;20560;-68
2022/03/26 03:20:44;;;;;;;31.20;18.55;;;;;;;;;;5094103;28;20220;-67
2022/03/26 03:23:13;;;;;;;30.85;18.75;;;;;;;;;;5093235;28;20268;-67
2022/03/26 03:25:40;;;;;;;29.02;16.92;;;;;;;;;;5092951;28;20697;-68
2022/03/26 03:28:08;;;;;;;29.52;18.63;;;;;;;;;;5092915;28;20200;-68
2022/03/26 03:30:36;;;;;;;29.08;17.92;;;;;;;;;;5093943;28;20194;-68
2022/03/26 03:33:04;;;;;;;31.25;17.55;;;;;;;;;;5096956;28;20196;-68
2022/03/26 03:35:31;;;;;;;30.50;18.75;;;;;;;;;;5096456;28;20216;-68
2022/03/26 03:37:58;;;;;;;26.95;17.15;;;;;;;;;;5097363;28;20202;-68
2022/03/26 03:40:26;;;;;;;28.15;18.42;;;;;;;;;;5096438;28;20222;-68
2022/03/26 03:42:54;;;;;;;30.88;18.58;;;;;;;;;;5096777;28;20197;-68
2022/03/26 03:45:21;;;;;;;32.95;21.58;;;;;;;;;;5096336;28;20224;-67
2022/03/26 03:47:50;;;;;;;31.05;17.63;;;;;;;;;;5096574;28;20195;-68
2022/03/26 03:50:17;;;;;;;32.00;18.42;;;;;;;;;;5096509;28;20623;-67
2022/03/26 03:52:45;;;;;;;36.42;19.30;;;;;;;;;;5096288;28;20239;-67
2022/03/26 03:55:12;;;;;;;31.63;17.42;;;;;;;;;;5096652;28;20568;-67
2022/03/26 03:57:41;;;;;;;40.38;21.10;;;;;;;;;;5096166;28;20203;-67
2022/03/26 04:00:09;;;;;;;36.72;19.88;;;;;;;;;;5095947;28;20211;-67
2022/03/26 04:02:37;;;;;;;38.83;19.85;;;;;;;;;;5097200;28;20205;-67
2022/03/26 04:05:06;;;;;;;32.05;20.80;;;;;;;;;;5096248;28;20199;-67
2022/03/26 04:07:33;;;;;;;34.55;20.80;;;;;;;;;;5096237;28;20196;-67
2022/03/26 04:10:00;;;;;;;34.28;19.20;;;;;;;;;;5096161;28;20253;-67
2022/03/26 04:12:27;;;;;;;33.95;21.35;;;;;;;;;;5095834;28;20195;-67
2022/03/26 04:14:54;;;;;;;42.30;21.25;;;;;;;;;;5095601;28;20260;-67
2022/03/26 04:17:21;;;;;;;40.72;19.92;;;;;;;;;;5096097;28;20547;-67
2022/03/26 04:19:49;;;;;;;35.72;19.60;;;;;;;;;;5095578;28;20207;-68
2022/03/26 04:22:17;;;;;;;35.67;20.10;;;;;;;;;;5096011;28;20195;-68
2022/03/26 04:24:45;;;;;;;42.72;19.77;;;;;;;;;;5095946;28;20202;-68
2022/03/26 04:27:12;;;;;;;32.75;19.23;;;;;;;;;;5095896;28;20204;-68
2022/03/26 04:29:39;;;;;;;41.40;20.83;;;;;;;;;;5095748;28;20192;-67
2022/03/26 04:32:06;;;;;;;27.15;18.15;;;;;;;;;;5095517;28;20197;-67
2022/03/26 04:34:35;;;;;;;41.17;19.58;;;;;;;;;;5095773;28;20202;-67
2022/03/26 04:37:02;;;;;;;31.92;19.33;;;;;;;;;;5095546;28;20639;-67
2022/03/26 04:39:31;;;;;;;29.98;20.23;;;;;;;;;;5095244;28;20199;-68
2022/03/26 04:41:58;;;;;;;36.58;19.70;;;;;;;;;;5094192;28;20689;-68
2022/03/26 04:44:25;;;;;;;36.17;21.15;;;;;;;;;;5095316;28;20197;-68
2022/03/26 04:46:52;;;;;;;32.85;22.55;;;;;;;;;;5095372;28;20196;-68
2022/03/26 04:49:20;;;;;;;30.92;19.38;;;;;;;;;;5095082;28;20197;-68
2022/03/26 04:51:47;;;;;;;30.33;18.95;;;;;;;;;;5095280;28;20589;-67
2022/03/26 04:54:14;;;;;;;44.78;19.65;;;;;;;;;;5095045;28;20200;-67
2022/03/26 04:56:43;;;;;;;36.65;22.05;;;;;;;;;;5094911;28;20198;-67
2022/03/26 04:59:10;;;;;;;33.70;19.70;;;;;;;;;;5095430;28;20202;-68
2022/03/26 05:01:37;;;;;;;44.90;24.88;;;;;;;;;;5095168;28;20663;-68
2022/03/26 05:04:05;;;;;;;36.17;21.70;;;;;;;;;;5095359;28;20196;-68
2022/03/26 05:06:32;;;;;;;44.70;25.05;;;;;;;;;;5095141;28;20206;-67
2022/03/26 05:08:59;;;;;;;46.95;26.02;;;;;;;;;;5095307;28;20190;-67
2022/03/26 05:11:26;;;;;;;67.13;31.15;;;;;;;;;;5095090;28;20196;-67
2022/03/26 05:13:55;;;;;;;55.95;30.63;;;;;;;;;;5095003;28;20195;-67
2022/03/26 05:16:22;;;;;;;51.85;29.95;;;;;;;;;;5094684;28;20200;-67
2022/03/26 05:18:49;;;;;;;58.10;33.08;;;;;;;;;;5094896;28;20200;-67
2022/03/26 05:21:16;;;;;;;57.03;34.53;;;;;;;;;;5093723;28;20222;-67
2022/03/26 05:23:43;;;;;;;54.30;32.50;;;;;;;;;;5093579;28;20201;-67
2022/03/26 05:26:11;;;;;;;62.28;38.75;;;;;;;;;;5093852;28;20607;-68
2022/03/26 05:28:38;;;;;;;41.65;23.77;;;;;;;;;;5093307;28;20221;-67
2022/03/26 05:31:07;;;;;;;42.20;21.10;;;;;;;;;;5093636;28;20241;-71
2022/03/26 05:33:34;;;;;;;63.10;35.92;;;;;;;;;;5093737;28;20557;-67
2022/03/26 05:36:01;;;;;;;37.60;23.13;;;;;;;;;;5093173;28;20195;-67
2022/03/26 05:38:28;;;;;;;40.40;22.50;;;;;;;;;;5093803;28;20194;-68
2022/03/26 05:40:55;;;;;;;45.17;22.23;;;;;;;;;;5093031;28;20225;-67
2022/03/26 05:43:23;;;;;;;40.80;24.27;;;;;;;;;;5094017;28;20194;-67
2022/03/26 05:45:51;;;;;;;42.42;26.90;;;;;;;;;;5093072;28;20703;-67
2022/03/26 05:48:19;;;;;;;43.40;26.35;;;;;;;;;;5093668;28;20200;-67
2022/03/26 05:50:47;;;;;;;42.75;24.80;;;;;;;;;;5093663;28;20284;-67
2022/03/26 05:53:14;;;;;;;46.70;25.63;;;;;;;;;;5093077;28;20655;-69
2022/03/26 05:55:41;;;;;;;41.92;23.25;;;;;;;;;;5093647;28;20665;-68
2022/03/26 05:58:10;;;;;;;44.10;24.58;;;;;;;;;;5093321;28;20209;-67
2022/03/26 06:00:38;;;;;;;46.65;24.52;;;;;;;;;;5093595;28;20223;-67
2022/03/26 06:03:05;;;;;;;38.85;25.05;;;;;;;;;;5093787;28;20196;-67
2022/03/26 06:05:34;;;;;;;39.80;23.35;;;;;;;;;;5093911;28;20197;-68
2022/03/26 06:08:01;;;;;;;35.55;22.60;;;;;;;;;;5093635;28;20224;-67
2022/03/26 06:10:28;;;;;;;39.78;21.58;;;;;;;;;;5094155;28;20199;-67
2022/03/26 06:12:55;;;;;;;53.63;27.92;;;;;;;;;;5094177;28;20564;-67
2022/03/26 06:15:23;;;;;;;47.45;27.13;;;;;;;;;;5094371;28;20193;-67
2022/03/26 06:17:50;;;;;;;46.50;24.15;;;;;;;;;;5093521;28;20196;-67
2022/03/26 06:20:17;;;;;;;41.88;24.55;;;;;;;;;;5092974;28;20200;-67
2022/03/26 06:22:46;;;;;;;48.88;28.55;;;;;;;;;;5093370;28;20644;-68
2022/03/26 06:25:15;;;;;;;53.00;24.98;;;;;;;;;;5093847;28;20192;-68
2022/03/26 06:27:42;;;;;;;43.00;25.20;;;;;;;;;;5093668;28;20202;-68
2022/03/26 06:30:11;;;;;;;44.33;26.27;;;;;;;;;;5093990;28;20198;-68
2022/03/26 06:32:39;;;;;;;41.63;24.20;;;;;;;;;;5093353;28;20257;-68
2022/03/26 06:35:07;;;;;;;40.33;23.77;;;;;;;;;;5093447;28;20201;-68
2022/03/26 06:37:34;;;;;;;41.40;25.90;;;;;;;;;;5093281;28;20201;-68
2022/03/26 06:40:03;;;;;;;41.72;24.58;;;;;;;;;;5093010;28;20196;-68
2022/03/26 06:42:30;;;;;;;37.38;24.15;;;;;;;;;;5092813;28;20228;-68
2022/03/26 06:44:59;;;;;;;44.08;27.50;;;;;;;;;;5093285;28;20226;-68
2022/03/26 06:47:27;;;;;;;41.60;24.67;;;;;;;;;;5093728;28;20194;-68
2022/03/26 06:49:54;;;;;;;54.25;26.63;;;;;;;;;;5093768;28;20198;-68
2022/03/26 06:52:23;;;;;;;43.15;25.20;;;;;;;;;;5093378;28;20236;-68
2022/03/26 06:54:50;;;;;;;45.92;25.98;;;;;;;;;;5093241;28;20230;-68
2022/03/26 06:57:19;;;;;;;46.35;25.35;;;;;;;;;;5093310;28;20193;-68
2022/03/26 06:59:47;;;;;;;46.47;25.80;;;;;;;;;;5093935;28;20201;-68
2022/03/26 07:02:14;;;;;;;45.65;24.77;;;;;;;;;;5092927;28;20224;-68
2022/03/26 07:04:41;;;;;;;40.70;25.70;;;;;;;;;;5093160;28;20193;-68
2022/03/26 07:07:08;;;;;;;42.80;26.13;;;;;;;;;;5096846;28;20203;-69
2022/03/26 07:09:36;;;;;;;45.90;24.27;;;;;;;;;;5097741;28;20195;-68
2022/03/26 07:12:03;;;;;;;42.70;24.85;;;;;;;;;;5096979;28;20679;-68
2022/03/26 07:14:33;;;;;;;49.15;25.70;;;;;;;;;;5097310;28;20195;-68
2022/03/26 07:17:00;;;;;;;49.00;27.73;;;;;;;;;;5096802;28;20208;-68
2022/03/26 07:19:27;;;;;;;52.50;27.15;;;;;;;;;;5097315;28;20206;-68
2022/03/26 07:21:55;;;;;;;51.22;29.77;;;;;;;;;;5097030;28;20220;-68
2022/03/26 07:24:22;;;;;;;45.22;26.85;;;;;;;;;;5096757;28;20229;-68
2022/03/26 07:26:49;;;;;;;47.28;25.50;;;;;;;;;;5097188;28;20210;-68
2022/03/26 07:29:16;;;;;;;42.85;26.38;;;;;;;;;;5096680;28;20196;-68
2022/03/26 07:31:45;;;;;;;43.30;28.40;;;;;;;;;;5096484;28;20204;-68
2022/03/26 07:34:15;;;;;;;47.75;25.73;;;;;;;;;;5096899;28;20200;-68
2022/03/26 07:36:43;;;;;;;53.45;26.40;;;;;;;;;;5096901;28;20184;-68
2022/03/26 07:39:10;;;;;;;50.60;26.15;;;;;;;;;;5096914;28;20199;-68
2022/03/26 07:41:37;;;;;;;44.05;26.02;;;;;;;;;;5095095;28;20822;-68
2022/03/26 07:44:05;;;;;;;46.47;26.92;;;;;;;;;;5096341;28;20253;-68
2022/03/26 07:46:32;;;;;;;45.90;24.73;;;;;;;;;;5096605;28;20237;-68
2022/03/26 07:49:01;;;;;;;51.60;28.05;;;;;;;;;;5096496;28;20211;-68
2022/03/26 07:51:28;;;;;;;46.30;26.48;;;;;;;;;;5097044;28;20197;-68
2022/03/26 07:53:55;;;;;;;43.90;26.35;;;;;;;;;;5096518;28;20289;-68
2022/03/26 07:56:22;;;;;;;51.95;25.50;;;;;;;;;;5096305;28;20195;-68
2022/03/26 07:58:50;;;;;;;42.15;25.75;;;;;;;;;;5095989;28;20658;-68
2022/03/26 08:01:17;;;;;;;44.90;25.88;;;;;;;;;;5095499;28;20215;-68
2022/03/26 08:03:44;;;;;;;47.28;25.80;;;;;;;;;;5095665;28;20666;-68
2022/03/26 08:06:13;;;;;;;52.92;26.88;;;;;;;;;;5095985;28;20207;-68
2022/03/26 08:08:40;;;;;;;53.70;29.70;;;;;;;;;;5095815;28;20675;-68
2022/03/26 08:11:07;;;;;;;57.90;30.33;;;;;;;;;;5095903;28;20203;-68
2022/03/26 08:13:35;;;;;;;47.97;27.13;;;;;;;;;;5096038;28;20203;-68
2022/03/26 08:16:02;;;;;;;48.08;26.83;;;;;;;;;;5096173;28;20193;-68
2022/03/26 08:18:29;;;;;;;50.22;29.23;;;;;;;;;;5095864;28;20192;-68
2022/03/26 08:20:56;;;;;;;47.90;28.15;;;;;;;;;;5094726;28;20283;-68
2022/03/26 08:23:25;;;;;;;47.42;28.23;;;;;;;;;;5095694;28;20192;-68
2022/03/26 08:28:37;;;;;;;50.90;27.92;;;;;;;;;;5095596;28;20175;-68
2022/03/26 08:31:05;;;;;;;60.80;30.38;;;;;;;;;;5095779;28;20533;-68
2022/03/26 08:33:32;;;;;;;48.00;26.65;;;;;;;;;;5095640;28;20528;-67
2022/03/26 08:35:59;;;;;;;51.80;28.80;;;;;;;;;;5095286;28;20672;-68
2022/03/26 08:38:28;;;;;;;51.60;28.27;;;;;;;;;;5095436;28;20201;-67
2022/03/26 08:40:55;;;;;;;50.63;25.83;;;;;;;;;;5094265;28;20212;-67
2022/03/26 08:43:22;;;;;;;42.13;25.85;;;;;;;;;;5095135;28;20201;-68
2022/03/26 08:45:49;;;;;;;47.27;26.07;;;;;;;;;;5094531;28;20233;-67
2022/03/26 08:48:17;;;;;;;46.47;25.85;;;;;;;;;;5095320;28;20887;-69
2022/03/26 08:50:45;;;;;;;35.40;21.70;;;;;;;;;;5095019;28;20197;-67
2022/03/26 08:53:12;;;;;;;33.77;20.47;;;;;;;;;;5094862;28;20475;-67
2022/03/26 08:55:41;;;;;;;42.93;21.73;;;;;;;;;;5094952;28;20442;-68
2022/03/26 08:58:09;;;;;;;34.43;20.87;;;;;;;;;;5095177;28;20692;-68
2022/03/26 09:00:36;;;;;;;37.90;22.50;;;;;;;;;;5094645;28;20508;-68
2022/03/26 09:03:04;;;;;;;29.30;19.03;;;;;;;;;;5094400;28;21051;-68
2022/03/26 09:05:31;;;;;;;36.43;22.87;;;;;;;;;;5094323;28;20437;-68
2022/03/26 09:07:58;;;;;;;24.80;16.37;;;;;;;;;;5094986;28;20443;-68
2022/03/26 09:10:25;;;;;;;36.30;20.93;;;;;;;;;;5094910;28;20931;-68
2022/03/26 09:12:55;;;;;;;37.23;20.73;;;;;;;;;;5094904;28;20543;-68
2022/03/26 09:15:22;;;;;;;38.13;20.40;;;;;;;;;;5094423;28;20490;-68
2022/03/26 09:17:49;;;;;;;42.97;24.27;;;;;;;;;;5094628;28;20450;-68
2022/03/26 09:20:16;;;;;;;36.43;19.30;;;;;;;;;;5094206;28;20431;-68
2022/03/26 09:22:44;;;;;;;36.53;20.87;;;;;;;;;;5094580;28;20570;-68
2022/03/26 09:25:12;;;;;;;36.80;22.27;;;;;;;;;;5093809;28;20803;-68
2022/03/26 09:27:39;;;;;;;40.83;24.23;;;;;;;;;;5094117;28;20444;-68
2022/03/26 09:30:09;;;;;;;42.13;22.33;;;;;;;;;;5094387;28;20443;-68
2022/03/26 09:32:36;;;;;;;36.43;20.73;;;;;;;;;;5094498;28;20451;-68
2022/03/26 09:35:04;;;;;;;33.60;22.03;;;;;;;;;;5094439;28;20497;-68
2022/03/26 09:37:31;;;;;;;30.10;19.07;;;;;;;;;;5094509;28;20436;-69
2022/03/26 09:39:58;;;;;;;33.23;19.00;;;;;;;;;;5093781;28;20455;-68
2022/03/26 09:42:25;;;;;;;38.00;21.80;;;;;;;;;;5093605;28;20478;-68
2022/03/26 09:44:53;;;;;;;32.07;21.53;;;;;;;;;;5093567;28;20471;-69
2022/03/26 09:47:22;;;;;;;31.90;20.10;;;;;;;;;;5093872;28;20445;-70
2022/03/26 09:49:49;;;;;;;34.70;20.33;;;;;;;;;;5094794;28;20443;-69
2022/03/26 09:52:17;;;;;;;36.60;22.83;;;;;;;;;;5094420;28;20486;-70
2022/03/26 09:54:44;;;;;;;34.87;21.00;;;;;;;;;;5093916;28;20527;-69
2022/03/26 09:57:11;;;;;;;28.93;17.70;;;;;;;;;;5094285;28;20431;-69
2022/03/26 09:59:39;;;;;;;30.80;18.83;;;;;;;;;;5094068;28;20448;-69
2022/03/26 10:02:06;;;;;;;31.13;21.43;;;;;;;;;;5093031;28;20569;-69
2022/03/26 10:04:41;;;;;;;32.90;19.67;;;;;;;;;;5093823;28;20440;-69
2022/03/26 10:07:08;;;;;;;35.07;19.63;;;;;;;;;;5093803;28;20441;-69
2022/03/26 10:09:36;;;;;;;23.40;17.33;;;;;;;;;;5093883;28;20459;-69
2022/03/26 10:12:05;;;;;;;21.20;14.83;;;;;;;;;;5093944;28;20484;-72
2022/03/26 10:14:42;;;;;;;28.00;16.60;;;;;;;;;;5093449;28;20444;-69
2022/03/26 10:17:10;;;;;;;24.60;17.57;;;;;;;;;;5094992;28;20443;-70
2022/03/26 10:19:38;;;;;;;24.63;15.80;;;;;;;;;;5093248;28;20976;-69
2022/03/26 10:22:06;;;;;;;25.90;15.87;;;;;;;;;;5092723;28;20563;-69
2022/03/26 10:24:33;;;;;;;26.80;16.40;;;;;;;;;;5093172;28;20436;-69
2022/03/26 10:27:11;;;;;;;23.17;14.10;;;;;;;;;;5093183;28;20450;-70
2022/03/26 10:29:49;;;;;;;25.27;16.27;;;;;;;;;;5093452;28;20463;-69
2022/03/26 10:32:40;;;;;;;29.40;16.33;;;;;;;;;;5093404;28;20435;-69
2022/03/26 10:35:14;;;;;;;25.47;15.40;;;;;;;;;;5093402;28;20911;-69
2022/03/26 10:37:47;;;;;;;27.13;16.80;;;;;;;;;;5093668;28;20970;-69
2022/03/26 10:40:17;;;;;;;26.80;15.63;;;;;;;;;;5093802;28;20505;-70
2022/03/26 10:42:45;;;;;;;21.60;14.60;;;;;;;;;;5097089;28;20478;-69
2022/03/26 10:45:15;;;;;;;22.53;14.60;;;;;;;;;;5097190;28;20471;-68
2022/03/26 10:47:42;;;;;;;19.23;12.50;;;;;;;;;;5097860;28;20439;-67
2022/03/26 10:50:10;;;;;;;24.20;14.10;;;;;;;;;;5097089;28;20945;-68
2022/03/26 10:52:37;;;;;;;21.20;13.40;;;;;;;;;;5098033;28;20445;-68
2022/03/26 10:55:13;;;;;;;21.77;13.50;;;;;;;;;;5097467;28;20442;-68
2022/03/26 10:57:41;;;;;;;30.23;15.87;;;;;;;;;;5097875;28;20422;-68
2022/03/26 11:00:09;;;;;;;19.27;13.33;;;;;;;;;;5097404;28;20446;-69
2022/03/26 11:02:36;;;;;;;18.30;13.77;;;;;;;;;;5096057;28;20521;-68
2022/03/26 11:05:04;;;;;;;21.47;15.10;;;;;;;;;;5096542;28;20446;-69
2022/03/26 11:07:32;;;;;;;17.90;13.80;;;;;;;;;;5096865;28;20530;-68
2022/03/26 11:09:59;;;;;;;21.53;15.03;;;;;;;;;;5097346;28;20553;-68
2022/03/26 11:12:28;;;;;;;20.33;14.70;;;;;;;;;;5096802;28;20812;-69
2022/03/26 11:14:56;;;;;;;18.67;14.50;;;;;;;;;;5096977;28;20435;-69
2022/03/26 11:17:37;;;;;;;23.77;16.63;;;;;;;;;;5097148;28;20488;-69
2022/03/26 11:20:16;;;;;;;21.07;14.70;;;;;;;;;;5096952;28;20444;-69
2022/03/26 11:22:53;;;;;;;25.10;16.37;;;;;;;;;;5096132;28;20481;-69
2022/03/26 11:25:37;;;;;;;20.60;16.63;;;;;;;;;;5096522;28;20422;-69
2022/03/26 11:28:15;;;;;;;20.17;14.87;;;;;;;;;;5096838;28;20428;-69
2022/03/26 11:30:46;;;;;;;23.13;14.30;;;;;;;;;;5097048;28;20431;-69
2022/03/26 11:33:14;;;;;;;19.67;13.03;;;;;;;;;;5096525;28;20433;-69
2022/03/26 11:35:56;;;;;;;21.30;14.10;;;;;;;;;;5096420;28;20440;-69
2022/03/26 11:38:24;;;;;;;18.33;13.73;;;;;;;;;;5097153;28;20440;-69
2022/03/26 11:40:53;;;;;;;22.93;15.60;;;;;;;;;;5096432;28;20442;-69
2022/03/26 11:43:41;;;;;;;26.70;16.20;;;;;;;;;;5095737;28;20482;-69
2022/03/26 11:51:40;;;;;;;26.80;15.33;;;;;;;;;;5095759;28;20531;-69
2022/03/26 11:54:09;;;;;;;21.27;14.60;;;;;;;;;;5096121;28;20530;-69
2022/03/26 11:56:36;;;;;;;19.00;14.73;;;;;;;;;;5096281;28;20444;-69
2022/03/26 11:59:09;;;;;;;19.40;11.90;;;;;;;;;;5096038;28;20452;-68
2022/03/26 12:01:37;;;;;;;20.33;14.37;;;;;;;;;;5095090;28;20443;-68
2022/03/26 12:04:11;;;;;;;20.50;14.40;;;;;;;;;;5095362;28;20479;-69
2022/03/26 12:06:47;;;;;;;18.03;14.00;;;;;;;;;;5095177;28;20440;-70
2022/03/26 12:09:28;;;;;;;21.23;15.27;;;;;;;;;;5095811;28;20445;-69
2022/03/26 12:12:23;;;;;;;25.53;14.93;;;;;;;;;;5095789;28;20428;-69
2022/03/26 12:15:10;;;;;;;23.00;16.10;;;;;;;;;;5082768;28;20535;-69
2022/03/26 12:17:45;;;;;;;20.67;14.40;;;;;;;;;;5095458;28;20500;-69
2022/03/26 12:20:23;;;;;;;19.37;13.47;;;;;;;;;;5095616;28;20487;-69
2022/03/26 12:22:51;;;;;;;20.87;14.47;;;;;;;;;;5094512;28;20468;-68
2022/03/26 12:25:18;;;;;;;18.27;14.70;;;;;;;;;;5094976;28;20532;-69
2022/03/26 12:27:45;;;;;;;16.57;13.77;;;;;;;;;;5094993;28;20929;-69
2022/03/26 12:30:14;;;;;;;21.30;13.83;;;;;;;;;;5095349;28;20449;-69
2022/03/26 12:32:41;;;;;;;26.10;14.73;;;;;;;;;;5095182;28;20920;-69
2022/03/26 12:35:10;;;;;;;24.63;14.40;;;;;;;;;;5095415;28;20864;-68
2022/03/26 12:37:38;;;;;;;20.80;14.30;;;;;;;;;;5095546;28;20439;-69
2022/03/26 12:40:07;;;;;;;18.70;13.83;;;;;;;;;;5095043;28;20449;-68
2022/03/26 12:42:34;;;;;;;19.67;14.17;;;;;;;;;;5095418;28;20472;-68
2022/03/26 12:45:01;;;;;;;21.83;15.13;;;;;;;;;;5095093;28;20466;-68
2022/03/26 12:47:29;;;;;;;22.33;15.53;;;;;;;;;;5095181;28;20527;-70
2022/03/26 12:50:01;;;;;;;22.53;16.57;;;;;;;;;;5095272;28;20802;-68
2022/03/26 12:52:29;;;;;;;19.60;15.33;;;;;;;;;;5094829;28;20425;-70
2022/03/26 12:54:57;;;;;;;25.30;14.20;;;;;;;;;;5095185;28;20458;-68
2022/03/26 12:57:24;;;;;;;21.97;14.57;;;;;;;;;;5094759;28;20450;-68
2022/03/26 12:59:51;;;;;;;19.27;14.40;;;;;;;;;;5094951;28;20460;-70
2022/03/26 13:02:20;;;;;;;22.10;14.67;;;;;;;;;;5094609;28;20443;-68
2022/03/26 13:04:51;;;;;;;21.03;14.00;;;;;;;;;;5093894;28;20949;-68
2022/03/26 13:07:18;;;;;;;19.73;15.27;;;;;;;;;;5094458;28;20424;-69
2022/03/26 13:09:47;;;;;;;19.90;12.90;;;;;;;;;;5094296;28;20463;-68
2022/03/26 13:12:24;;;;;;;17.50;10.77;;;;;;;;;;5094943;28;20491;-68
2022/03/26 13:14:51;;;;;;;22.80;13.10;;;;;;;;;;5094295;28;20481;-69
2022/03/26 13:17:20;;;;;;;17.97;12.50;;;;;;;;;;5094334;28;20443;-69
2022/03/26 13:19:47;;;;;;;20.27;14.67;;;;;;;;;;5094385;28;20456;-69
2022/03/26 13:22:16;;;;;;;18.00;14.43;;;;;;;;;;5094162;28;20440;-69
2022/03/26 13:24:51;;;;;;;23.93;13.53;;;;;;;;;;5094079;28;20475;-69
2022/03/26 13:27:19;;;;;;;20.43;14.20;;;;;;;;;;5094039;28;20489;-69
2022/03/26 13:29:47;;;;;;;17.27;12.63;;;;;;;;;;5094402;28;20442;-69
2022/03/26 13:32:14;;;;;;;15.43;12.30;;;;;;;;;;5094281;28;20797;-69
2022/03/26 13:34:42;;;;;;;18.93;12.47;;;;;;;;;;5094366;28;20443;-69
2022/03/26 13:37:10;;;;;;;18.40;13.00;;;;;;;;;;5093791;28;21052;-69
2022/03/26 13:39:38;;;;;;;17.50;12.27;;;;;;;;;;5094167;28;20930;-69
2022/03/26 13:42:11;;;;;;;19.53;12.70;;;;;;;;;;5093811;28;20442;-69
2022/03/26 13:44:40;;;;;;;17.97;13.07;;;;;;;;;;5093673;28;20495;-69
2022/03/26 13:47:07;;;;;;;15.13;10.37;;;;;;;;;;5094578;28;20547;-69
2022/03/26 13:49:35;;;;;;;14.50;11.97;;;;;;;;;;5094341;28;20442;-69
2022/03/26 13:52:09;;;;;;;21.07;12.83;;;;;;;;;;5094060;28;20451;-70
2022/03/26 13:54:39;;;;;;;21.37;15.33;;;;;;;;;;5094357;28;20846;-67
2022/03/26 13:57:06;;;;;;;15.23;11.33;;;;;;;;;;5093901;28;20523;-70
2022/03/26 13:59:38;;;;;;;17.40;10.87;;;;;;;;;;5094285;28;20443;-70
2022/03/26 14:02:05;;;;;;;21.37;13.30;;;;;;;;;;5094031;28;20420;-70
2022/03/26 14:04:36;;;;;;;16.63;12.60;;;;;;;;;;5093607;28;20478;-69
2022/03/26 14:07:06;;;;;;;16.00;11.10;;;;;;;;;;5093564;28;20760;-70
2022/03/26 14:09:34;;;;;;;18.53;11.10;;;;;;;;;;5092484;28;20444;-69
2022/03/26 14:12:03;;;;;;;14.53;11.03;;;;;;;;;;5093037;28;20443;-69
2022/03/26 14:14:30;;;;;;;16.63;11.10;;;;;;;;;;5092775;28;20526;-69
2022/03/26 14:16:59;;;;;;;13.90;11.23;;;;;;;;;;5092832;28;20904;-70
2022/03/26 14:19:26;;;;;;;13.80;11.00;;;;;;;;;;5092821;28;20456;-71
2022/03/26 14:21:53;;;;;;;16.50;13.60;;;;;;;;;;5092798;28;20790;-70
2022/03/26 14:24:20;;;;;;;19.07;12.20;;;;;;;;;;5092761;28;20475;-70
2022/03/26 14:26:47;;;;;;;16.17;12.00;;;;;;;;;;5092794;28;20442;-70
2022/03/26 14:29:15;;;;;;;12.53;10.77;;;;;;;;;;5092530;28;20439;-70
2022/03/26 14:31:42;;;;;;;11.30;9.20;;;;;;;;;;5092919;28;20863;-70